Calgary International Airport
CYYC : now visible

Airfield :











YOU CAN JOIN US ON...

 
LOGIN :

Register | Disclaimer

   EN    FR    IT 

 









Legend :    VFR   Marginal VFR   IFR   Intensive IFR   Very Intensive IFR
Visi :
Ceiling :
>= 8 km
>= 3000ft
5 to 8 km
1000 to 3000 ft
1500m to 5 km
500 to 1000 ft
800 to 1500m
200 to 500 ft
< 800m
< 200 ft
Symbols :   Thunderstorms  Fog  Heavy snow  Heavy precipitations  Wind > 20 kt






- Airport Elevation : 3557 ft
- IATA code : YYC


CYYC - Calgary International

CURRENT METAR :
  • 080700Z 06009KT 2 1/2SM -SN OVC005 M10/M12 A2983 RMK ST8 SLP171

EXPIRED METARs :
  • 080638Z 06010KT 2SM -SN OVC004 M10/M12 A2983 RMK ST8 PCPN VRY LGT SLP171
  • 080600Z 08010KT 1 1/2SM -SG BR OVC002 M10/M11 A2982 RMK ST8 SLP169
  • 080550Z 06011KT 1 1/2SM -SG BR OVC003 M10/M11 A2982 RMK ST8 SLP169
  • 080500Z 07010KT 2SM -SG BR OVC004 M09/M11 A2981 RMK ST8 PCPN VRY LGT SLP166
  • 080449Z 08010KT 2 1/2SM -SG OVC004 M09/M10 A2981 RMK ST8 SLP164

TAF AMD TAF CYYC
Valid from the 08 at 06:00 until the 09 at 06:00 UTC


080559Z 0806/0906 06010KT 1SM -SN BR OVC003
TEMPO 0806/0812 4SM -SG BR SCT003 OVC025
FM081200 VRB03KT P6SM SCT006 BKN040
TEMPO 0812/0816 4SM -SN BKN006 OVC040
FM081600 22006KT P6SM FEW040
BECMG 0822/0824 30010KT
FM090300 28010KT P6SM BKN060 OVC120 RMK NXT FCST BY 080900Z



MET'MAP, your aeronautical weather chart ! - Copyright ORBIFLY December 2007 - Disclaimer

ORBIFLY MET'MAP TEAM :

Programming & Development : Alexandra Zaïnal
Concept & original design : Baudouin d'Aumeries
Assistance for programming : Marc-Olivier Méhu
Technical & hardware support : Manuel Goepfert

Contact : metmap@orbifly.com




SOURCES & CREDITS :

   NOAA       Earth
Advisory